Morristown, Arizona
Current Conditions -  °F | °C
As of 10:58 PM on Tuesday 21 Oct 2014 (Local Time) from KLUF Reporting Station
Clear Clear  
Wind Chill: 69°   Ceiling: Unl
Heat Index: 69°   Visibility: 10mi
Dew Point: 55°   Wind: 7mph
Humidity: 60%   Direction: 340°NNW
Pressure: 29.84"   Gusts: NA
Location:  33.86°N, 112.63°W
Report Text: KLUF 220558Z AUTO 34006KT 10SM CLR 21/13 A2984 RMK AO2 SLP094 T02070126 10301 20207 52013 $
Loading
Personal Weather Stations






























Interactive Weather Map
Tropical Storm Tracking
New forecast layout! Learn more

10-Day Weather Forecast

Advertisements
Track Severe Weather on mobile